sensor_id;sensor_type;location;lat;lon;timestamp;temperature;humidity
36214;DHT22;37652;50.400;30.628;2022-08-03T00:01:33;18.80;99.90
36214;DHT22;37652;50.400;30.628;2022-08-03T00:03:34;18.90;99.90
36214;DHT22;37652;50.400;30.628;2022-08-03T00:05:35;18.80;99.90
36214;DHT22;37652;50.400;30.628;2022-08-03T00:07:36;18.80;99.90
36214;DHT22;37652;50.400;30.628;2022-08-03T00:09:37;18.80;99.90
36214;DHT22;37652;50.400;30.628;2022-08-03T00:11:38;18.80;99.90
36214;DHT22;37652;50.400;30.628;2022-08-03T00:13:39;18.70;99.90
36214;DHT22;37652;50.400;30.628;2022-08-03T00:15:40;18.70;99.90
36214;DHT22;37652;50.400;30.628;2022-08-03T00:17:41;18.80;99.90
36214;DHT22;37652;50.400;30.628;2022-08-03T00:19:41;18.80;99.90
36214;DHT22;37652;50.400;30.628;2022-08-03T00:21:42;18.80;99.90
36214;DHT22;37652;50.400;30.628;2022-08-03T00:23:42;18.80;99.90
36214;DHT22;37652;50.400;30.628;2022-08-03T00:25:43;18.80;99.90
36214;DHT22;37652;50.400;30.628;2022-08-03T00:27:43;18.80;99.90
36214;DHT22;37652;50.400;30.628;2022-08-03T00:29:44;18.80;99.90
36214;DHT22;37652;50.400;30.628;2022-08-03T00:31:44;18.80;99.90
36214;DHT22;37652;50.400;30.628;2022-08-03T00:33:45;18.80;99.90
36214;DHT22;37652;50.400;30.628;2022-08-03T00:35:45;18.80;99.90
36214;DHT22;37652;50.400;30.628;2022-08-03T00:37:46;18.80;99.90
36214;DHT22;37652;50.400;30.628;2022-08-03T00:39:46;18.80;99.90
36214;DHT22;37652;50.400;30.628;2022-08-03T00:41:47;18.80;99.90
36214;DHT22;37652;50.400;30.628;2022-08-03T00:43:48;18.70;99.90
36214;DHT22;37652;50.400;30.628;2022-08-03T00:45:48;18.70;99.90
36214;DHT22;37652;50.400;30.628;2022-08-03T00:47:49;18.80;99.90
36214;DHT22;37652;50.400;30.628;2022-08-03T00:49:50;18.70;99.90
36214;DHT22;37652;50.400;30.628;2022-08-03T00:51:50;18.70;99.90
36214;DHT22;37652;50.400;30.628;2022-08-03T00:53:51;18.70;99.90
36214;DHT22;37652;50.400;30.628;2022-08-03T00:55:51;18.70;99.90
36214;DHT22;37652;50.400;30.628;2022-08-03T00:57:52;18.70;99.90
36214;DHT22;37652;50.400;30.628;2022-08-03T00:59:53;18.70;99.90
36214;DHT22;37652;50.400;30.628;2022-08-03T01:01:53;18.70;99.90
36214;DHT22;37652;50.400;30.628;2022-08-03T01:03:54;18.70;99.90
36214;DHT22;37652;50.400;30.628;2022-08-03T01:05:57;18.70;99.90
36214;DHT22;37652;50.400;30.628;2022-08-03T01:12:16;18.60;99.90
36214;DHT22;37652;50.400;30.628;2022-08-03T01:14:26;18.60;99.90
36214;DHT22;37652;50.400;30.628;2022-08-03T01:16:31;18.60;99.90
36214;DHT22;37652;50.400;30.628;2022-08-03T01:20:37;18.60;99.90
36214;DHT22;37652;50.400;30.628;2022-08-03T01:25:33;18.60;99.90
36214;DHT22;37652;50.400;30.628;2022-08-03T01:29:49;18.60;99.90
36214;DHT22;37652;50.400;30.628;2022-08-03T01:31:52;18.60;99.90
36214;DHT22;37652;50.400;30.628;2022-08-03T01:33:58;18.50;99.90
36214;DHT22;37652;50.400;30.628;2022-08-03T01:35:59;18.50;99.90
36214;DHT22;37652;50.400;30.628;2022-08-03T01:38:02;18.50;99.90
36214;DHT22;37652;50.400;30.628;2022-08-03T01:40:03;18.50;99.90
36214;DHT22;37652;50.400;30.628;2022-08-03T01:42:05;18.50;99.90
36214;DHT22;37652;50.400;30.628;2022-08-03T01:44:07;18.50;99.90
36214;DHT22;37652;50.400;30.628;2022-08-03T01:46:08;18.50;99.90
36214;DHT22;37652;50.400;30.628;2022-08-03T01:48:10;18.50;99.90
36214;DHT22;37652;50.400;30.628;2022-08-03T01:50:11;18.60;99.90
36214;DHT22;37652;50.400;30.628;2022-08-03T01:52:12;18.50;99.90
36214;DHT22;37652;50.400;30.628;2022-08-03T01:54:13;18.50;99.90
36214;DHT22;37652;50.400;30.628;2022-08-03T01:56:14;18.50;99.90
36214;DHT22;37652;50.400;30.628;2022-08-03T01:58:16;18.50;99.90
36214;DHT22;37652;50.400;30.628;2022-08-03T02:00:16;18.50;99.90
36214;DHT22;37652;50.400;30.628;2022-08-03T02:02:18;18.50;99.90
36214;DHT22;37652;50.400;30.628;2022-08-03T02:04:19;18.50;99.90
36214;DHT22;37652;50.400;30.628;2022-08-03T02:06:21;18.40;99.90
36214;DHT22;37652;50.400;30.628;2022-08-03T02:08:22;18.50;99.90
36214;DHT22;37652;50.400;30.628;2022-08-03T02:10:23;18.50;99.90
36214;DHT22;37652;50.400;30.628;2022-08-03T02:12:24;18.50;99.90
36214;DHT22;37652;50.400;30.628;2022-08-03T02:14:25;18.40;99.90
36214;DHT22;37652;50.400;30.628;2022-08-03T02:16:27;18.40;99.90
36214;DHT22;37652;50.400;30.628;2022-08-03T02:18:28;18.40;99.90
36214;DHT22;37652;50.400;30.628;2022-08-03T02:20:30;18.40;99.90
36214;DHT22;37652;50.400;30.628;2022-08-03T02:22:32;18.40;99.90
36214;DHT22;37652;50.400;30.628;2022-08-03T02:24:33;18.30;99.90
36214;DHT22;37652;50.400;30.628;2022-08-03T02:26:33;18.30;99.90
36214;DHT22;37652;50.400;30.628;2022-08-03T02:28:36;18.30;99.90
36214;DHT22;37652;50.400;30.628;2022-08-03T02:30:37;18.30;99.90
36214;DHT22;37652;50.400;30.628;2022-08-03T02:32:39;18.30;99.90
36214;DHT22;37652;50.400;30.628;2022-08-03T02:34:41;18.30;99.90
36214;DHT22;37652;50.400;30.628;2022-08-03T02:36:44;18.30;99.90
36214;DHT22;37652;50.400;30.628;2022-08-03T02:38:45;18.30;99.90
36214;DHT22;37652;50.400;30.628;2022-08-03T02:40:49;18.30;99.90
36214;DHT22;37652;50.400;30.628;2022-08-03T02:42:50;18.30;99.90
36214;DHT22;37652;50.400;30.628;2022-08-03T02:44:53;18.30;99.90
36214;DHT22;37652;50.400;30.628;2022-08-03T02:46:56;18.30;99.90
36214;DHT22;37652;50.400;30.628;2022-08-03T02:48:58;18.30;99.90
36214;DHT22;37652;50.400;30.628;2022-08-03T02:51:00;18.20;99.90
36214;DHT22;37652;50.400;30.628;2022-08-03T02:53:02;18.30;99.90
36214;DHT22;37652;50.400;30.628;2022-08-03T02:55:03;18.30;99.90
36214;DHT22;37652;50.400;30.628;2022-08-03T02:57:06;18.30;99.90
36214;DHT22;37652;50.400;30.628;2022-08-03T02:59:07;18.30;99.90
36214;DHT22;37652;50.400;30.628;2022-08-03T03:01:08;18.20;99.90
36214;DHT22;37652;50.400;30.628;2022-08-03T03:03:09;18.30;99.90
36214;DHT22;37652;50.400;30.628;2022-08-03T03:05:10;18.30;99.90
36214;DHT22;37652;50.400;30.628;2022-08-03T03:07:14;18.30;99.90
36214;DHT22;37652;50.400;30.628;2022-08-03T03:09:15;18.30;99.90
36214;DHT22;37652;50.400;30.628;2022-08-03T03:11:17;18.30;99.90
36214;DHT22;37652;50.400;30.628;2022-08-03T03:13:18;18.30;99.90
36214;DHT22;37652;50.400;30.628;2022-08-03T03:15:20;18.30;99.90
36214;DHT22;37652;50.400;30.628;2022-08-03T03:17:21;18.40;99.90
36214;DHT22;37652;50.400;30.628;2022-08-03T03:19:23;18.40;99.90
36214;DHT22;37652;50.400;30.628;2022-08-03T03:21:24;18.40;99.90
36214;DHT22;37652;50.400;30.628;2022-08-03T03:23:25;18.40;99.90
36214;DHT22;37652;50.400;30.628;2022-08-03T03:25:27;18.50;99.90
36214;DHT22;37652;50.400;30.628;2022-08-03T03:27:29;18.60;99.90
36214;DHT22;37652;50.400;30.628;2022-08-03T03:29:31;18.50;99.90
36214;DHT22;37652;50.400;30.628;2022-08-03T03:31:31;18.60;99.90
36214;DHT22;37652;50.400;30.628;2022-08-03T03:33:33;18.60;99.90
36214;DHT22;37652;50.400;30.628;2022-08-03T03:35:33;18.60;99.90
36214;DHT22;37652;50.400;30.628;2022-08-03T03:37:34;18.60;99.90
36214;DHT22;37652;50.400;30.628;2022-08-03T03:39:35;18.60;99.90
36214;DHT22;37652;50.400;30.628;2022-08-03T03:41:35;18.70;99.90
36214;DHT22;37652;50.400;30.628;2022-08-03T03:43:36;18.60;99.90
36214;DHT22;37652;50.400;30.628;2022-08-03T03:47:38;18.60;99.90
36214;DHT22;37652;50.400;30.628;2022-08-03T03:49:38;18.60;99.90
36214;DHT22;37652;50.400;30.628;2022-08-03T03:51:39;18.70;99.90
36214;DHT22;37652;50.400;30.628;2022-08-03T03:53:40;18.70;99.90
36214;DHT22;37652;50.400;30.628;2022-08-03T03:55:41;18.70;99.90
36214;DHT22;37652;50.400;30.628;2022-08-03T04:03:45;18.90;99.90
36214;DHT22;37652;50.400;30.628;2022-08-03T04:05:45;18.90;99.90
36214;DHT22;37652;50.400;30.628;2022-08-03T04:08:05;18.90;99.90
36214;DHT22;37652;50.400;30.628;2022-08-03T04:12:45;19.00;99.90
36214;DHT22;37652;50.400;30.628;2022-08-03T04:14:46;19.00;99.90
36214;DHT22;37652;50.400;30.628;2022-08-03T04:18:51;18.80;99.90
36214;DHT22;37652;50.400;30.628;2022-08-03T04:24:57;18.90;99.90
36214;DHT22;37652;50.400;30.628;2022-08-03T04:31:01;19.10;99.90
36214;DHT22;37652;50.400;30.628;2022-08-03T04:35:03;19.10;99.90
36214;DHT22;37652;50.400;30.628;2022-08-03T04:37:08;19.20;99.90
36214;DHT22;37652;50.400;30.628;2022-08-03T04:39:15;19.10;99.90
36214;DHT22;37652;50.400;30.628;2022-08-03T04:41:17;19.20;99.90
36214;DHT22;37652;50.400;30.628;2022-08-03T04:43:18;19.20;99.90
36214;DHT22;37652;50.400;30.628;2022-08-03T04:45:20;19.20;99.90
36214;DHT22;37652;50.400;30.628;2022-08-03T04:47:21;19.30;99.90
36214;DHT22;37652;50.400;30.628;2022-08-03T04:49:22;19.40;99.90
36214;DHT22;37652;50.400;30.628;2022-08-03T04:51:23;19.40;99.90
36214;DHT22;37652;50.400;30.628;2022-08-03T04:53:24;19.40;99.90
36214;DHT22;37652;50.400;30.628;2022-08-03T04:55:31;19.40;99.90
36214;DHT22;37652;50.400;30.628;2022-08-03T04:57:32;19.50;99.90
36214;DHT22;37652;50.400;30.628;2022-08-03T04:59:32;19.60;99.90
36214;DHT22;37652;50.400;30.628;2022-08-03T05:01:33;19.60;99.90
36214;DHT22;37652;50.400;30.628;2022-08-03T05:03:34;19.70;99.90
36214;DHT22;37652;50.400;30.628;2022-08-03T05:05:34;19.70;99.90
36214;DHT22;37652;50.400;30.628;2022-08-03T05:07:35;19.80;99.90
36214;DHT22;37652;50.400;30.628;2022-08-03T05:09:35;19.80;99.90
36214;DHT22;37652;50.400;30.628;2022-08-03T05:11:37;19.80;99.90
36214;DHT22;37652;50.400;30.628;2022-08-03T05:13:38;19.90;99.90
36214;DHT22;37652;50.400;30.628;2022-08-03T05:15:38;19.90;99.90
36214;DHT22;37652;50.400;30.628;2022-08-03T05:17:39;19.90;99.90
36214;DHT22;37652;50.400;30.628;2022-08-03T05:19:40;19.90;99.90
36214;DHT22;37652;50.400;30.628;2022-08-03T05:21:40;20.00;99.90
36214;DHT22;37652;50.400;30.628;2022-08-03T05:23:41;20.00;99.90
36214;DHT22;37652;50.400;30.628;2022-08-03T05:25:42;20.20;99.90
36214;DHT22;37652;50.400;30.628;2022-08-03T05:27:42;20.30;99.90
36214;DHT22;37652;50.400;30.628;2022-08-03T05:29:43;20.20;99.90
36214;DHT22;37652;50.400;30.628;2022-08-03T05:31:44;20.40;99.90
36214;DHT22;37652;50.400;30.628;2022-08-03T05:33:44;20.30;99.90
36214;DHT22;37652;50.400;30.628;2022-08-03T05:35:47;20.20;99.90
36214;DHT22;37652;50.400;30.628;2022-08-03T05:37:47;20.30;99.90
36214;DHT22;37652;50.400;30.628;2022-08-03T05:39:48;20.40;99.90
36214;DHT22;37652;50.400;30.628;2022-08-03T05:41:48;20.50;99.90
36214;DHT22;37652;50.400;30.628;2022-08-03T05:43:52;20.50;99.90
36214;DHT22;37652;50.400;30.628;2022-08-03T05:45:53;20.60;99.90
36214;DHT22;37652;50.400;30.628;2022-08-03T05:47:54;20.70;99.90
36214;DHT22;37652;50.400;30.628;2022-08-03T05:49:55;20.70;99.90
36214;DHT22;37652;50.400;30.628;2022-08-03T05:51:55;20.70;99.90
36214;DHT22;37652;50.400;30.628;2022-08-03T05:53:56;20.70;99.90
36214;DHT22;37652;50.400;30.628;2022-08-03T05:55:56;20.60;99.90
36214;DHT22;37652;50.400;30.628;2022-08-03T05:57:57;20.60;99.90
36214;DHT22;37652;50.400;30.628;2022-08-03T05:59:57;20.50;99.90
36214;DHT22;37652;50.400;30.628;2022-08-03T06:01:58;21.00;99.90
36214;DHT22;37652;50.400;30.628;2022-08-03T06:03:58;21.00;99.90
36214;DHT22;37652;50.400;30.628;2022-08-03T06:05:59;21.30;99.90
36214;DHT22;37652;50.400;30.628;2022-08-03T06:07:59;21.70;99.90
36214;DHT22;37652;50.400;30.628;2022-08-03T06:10:00;21.90;99.90
36214;DHT22;37652;50.400;30.628;2022-08-03T06:12:03;21.90;99.90
36214;DHT22;37652;50.400;30.628;2022-08-03T06:14:04;22.00;99.90
36214;DHT22;37652;50.400;30.628;2022-08-03T06:16:05;22.10;99.90
36214;DHT22;37652;50.400;30.628;2022-08-03T06:18:05;22.20;99.90
36214;DHT22;37652;50.400;30.628;2022-08-03T06:20:07;22.20;99.90
36214;DHT22;37652;50.400;30.628;2022-08-03T06:22:07;22.20;99.90
36214;DHT22;37652;50.400;30.628;2022-08-03T06:24:08;22.10;99.90
36214;DHT22;37652;50.400;30.628;2022-08-03T06:26:08;22.20;99.90
36214;DHT22;37652;50.400;30.628;2022-08-03T06:28:09;22.20;99.90
36214;DHT22;37652;50.400;30.628;2022-08-03T06:30:11;22.20;99.90
36214;DHT22;37652;50.400;30.628;2022-08-03T06:32:12;22.10;99.90
36214;DHT22;37652;50.400;30.628;2022-08-03T06:34:13;22.10;99.90
36214;DHT22;37652;50.400;30.628;2022-08-03T06:36:13;22.20;99.90
36214;DHT22;37652;50.400;30.628;2022-08-03T06:38:14;22.30;99.90
36214;DHT22;37652;50.400;30.628;2022-08-03T06:40:16;22.40;99.90
36214;DHT22;37652;50.400;30.628;2022-08-03T06:42:18;22.50;99.90
36214;DHT22;37652;50.400;30.628;2022-08-03T06:44:18;22.50;99.90
36214;DHT22;37652;50.400;30.628;2022-08-03T06:46:19;22.50;99.90
36214;DHT22;37652;50.400;30.628;2022-08-03T06:48:20;22.80;99.90
36214;DHT22;37652;50.400;30.628;2022-08-03T06:50:20;22.80;99.90
36214;DHT22;37652;50.400;30.628;2022-08-03T06:52:21;23.10;99.90
36214;DHT22;37652;50.400;30.628;2022-08-03T06:54:21;23.20;99.90
36214;DHT22;37652;50.400;30.628;2022-08-03T06:56:23;23.20;99.90
36214;DHT22;37652;50.400;30.628;2022-08-03T06:58:24;23.10;99.90
36214;DHT22;37652;50.400;30.628;2022-08-03T07:00:24;23.10;99.90
36214;DHT22;37652;50.400;30.628;2022-08-03T07:02:25;23.30;99.90
36214;DHT22;37652;50.400;30.628;2022-08-03T07:04:26;23.30;99.90
36214;DHT22;37652;50.400;30.628;2022-08-03T07:06:27;23.50;99.90
36214;DHT22;37652;50.400;30.628;2022-08-03T07:08:27;23.60;99.90
36214;DHT22;37652;50.400;30.628;2022-08-03T07:10:28;23.50;99.90
36214;DHT22;37652;50.400;30.628;2022-08-03T07:12:29;23.30;99.90
36214;DHT22;37652;50.400;30.628;2022-08-03T07:14:30;23.40;99.90
36214;DHT22;37652;50.400;30.628;2022-08-03T07:16:30;23.60;99.90
36214;DHT22;37652;50.400;30.628;2022-08-03T07:18:31;23.90;99.90
36214;DHT22;37652;50.400;30.628;2022-08-03T07:20:31;24.10;99.90
36214;DHT22;37652;50.400;30.628;2022-08-03T07:22:32;24.40;99.90
36214;DHT22;37652;50.400;30.628;2022-08-03T07:24:33;24.50;99.90
36214;DHT22;37652;50.400;30.628;2022-08-03T07:26:34;26.90;99.90
36214;DHT22;37652;50.400;30.628;2022-08-03T07:28:34;24.40;99.90
36214;DHT22;37652;50.400;30.628;2022-08-03T07:30:35;24.50;99.90
36214;DHT22;37652;50.400;30.628;2022-08-03T07:32:36;24.60;99.90
36214;DHT22;37652;50.400;30.628;2022-08-03T07:34:36;24.50;99.90
36214;DHT22;37652;50.400;30.628;2022-08-03T07:36:37;24.60;99.90
36214;DHT22;37652;50.400;30.628;2022-08-03T07:38:38;24.70;99.90
36214;DHT22;37652;50.400;30.628;2022-08-03T07:40:38;24.90;99.90
36214;DHT22;37652;50.400;30.628;2022-08-03T07:42:39;24.70;99.90
36214;DHT22;37652;50.400;30.628;2022-08-03T07:44:39;24.70;99.90
36214;DHT22;37652;50.400;30.628;2022-08-03T07:46:40;24.80;99.90
36214;DHT22;37652;50.400;30.628;2022-08-03T07:48:40;24.70;99.90
36214;DHT22;37652;50.400;30.628;2022-08-03T07:50:41;24.90;99.90
36214;DHT22;37652;50.400;30.628;2022-08-03T07:52:42;25.10;99.90
36214;DHT22;37652;50.400;30.628;2022-08-03T07:54:48;25.20;99.90
36214;DHT22;37652;50.400;30.628;2022-08-03T07:56:49;25.50;99.90
36214;DHT22;37652;50.400;30.628;2022-08-03T07:58:50;25.40;99.90
36214;DHT22;37652;50.400;30.628;2022-08-03T08:00:50;28.90;99.90
36214;DHT22;37652;50.400;30.628;2022-08-03T08:02:52;25.70;99.90
36214;DHT22;37652;50.400;30.628;2022-08-03T08:04:52;25.80;99.90
36214;DHT22;37652;50.400;30.628;2022-08-03T08:06:53;25.80;99.90
36214;DHT22;37652;50.400;30.628;2022-08-03T08:08:53;25.80;99.90
36214;DHT22;37652;50.400;30.628;2022-08-03T08:10:58;25.50;99.90
36214;DHT22;37652;50.400;30.628;2022-08-03T08:12:59;25.70;99.90
36214;DHT22;37652;50.400;30.628;2022-08-03T08:15:01;25.70;99.90
36214;DHT22;37652;50.400;30.628;2022-08-03T08:17:01;25.70;99.90
36214;DHT22;37652;50.400;30.628;2022-08-03T08:19:02;25.70;99.90
36214;DHT22;37652;50.400;30.628;2022-08-03T08:21:02;25.80;99.90
36214;DHT22;37652;50.400;30.628;2022-08-03T08:23:04;26.10;99.90
36214;DHT22;37652;50.400;30.628;2022-08-03T08:25:05;26.30;99.90
36214;DHT22;37652;50.400;30.628;2022-08-03T08:27:06;26.30;99.90
36214;DHT22;37652;50.400;30.628;2022-08-03T08:29:08;26.20;99.90
36214;DHT22;37652;50.400;30.628;2022-08-03T08:31:08;25.60;99.90
36214;DHT22;37652;50.400;30.628;2022-08-03T08:33:09;25.30;99.90
36214;DHT22;37652;50.400;30.628;2022-08-03T08:35:09;25.30;99.90
36214;DHT22;37652;50.400;30.628;2022-08-03T08:37:11;25.10;99.90
36214;DHT22;37652;50.400;30.628;2022-08-03T08:39:11;24.70;99.90
36214;DHT22;37652;50.400;30.628;2022-08-03T08:41:13;24.70;99.90
36214;DHT22;37652;50.400;30.628;2022-08-03T08:43:13;24.60;99.90
36214;DHT22;37652;50.400;30.628;2022-08-03T08:45:14;24.70;99.90
36214;DHT22;37652;50.400;30.628;2022-08-03T08:47:15;24.60;99.90
36214;DHT22;37652;50.400;30.628;2022-08-03T08:49:17;24.60;99.90
36214;DHT22;37652;50.400;30.628;2022-08-03T08:51:22;25.10;99.90
36214;DHT22;37652;50.400;30.628;2022-08-03T08:53:27;25.00;99.90
36214;DHT22;37652;50.400;30.628;2022-08-03T08:55:28;25.20;99.90
36214;DHT22;37652;50.400;30.628;2022-08-03T08:57:30;25.40;99.90
36214;DHT22;37652;50.400;30.628;2022-08-03T08:59:33;25.50;99.90
36214;DHT22;37652;50.400;30.628;2022-08-03T09:01:36;25.70;99.90
36214;DHT22;37652;50.400;30.628;2022-08-03T09:03:36;26.10;99.90
36214;DHT22;37652;50.400;30.628;2022-08-03T09:05:37;26.70;99.90
36214;DHT22;37652;50.400;30.628;2022-08-03T09:07:38;27.50;99.90
36214;DHT22;37652;50.400;30.628;2022-08-03T09:09:39;28.10;99.90
36214;DHT22;37652;50.400;30.628;2022-08-03T09:11:42;29.60;99.90
36214;DHT22;37652;50.400;30.628;2022-08-03T09:13:43;29.70;99.90
36214;DHT22;37652;50.400;30.628;2022-08-03T09:15:43;30.20;99.90
36214;DHT22;37652;50.400;30.628;2022-08-03T09:17:45;30.60;99.90
36214;DHT22;37652;50.400;30.628;2022-08-03T09:20:02;30.50;99.90
36214;DHT22;37652;50.400;30.628;2022-08-03T09:22:08;28.50;99.90
36214;DHT22;37652;50.400;30.628;2022-08-03T09:24:08;28.30;99.90
36214;DHT22;37652;50.400;30.628;2022-08-03T09:26:09;26.30;99.90
36214;DHT22;37652;50.400;30.628;2022-08-03T09:28:18;25.90;99.90
36214;DHT22;37652;50.400;30.628;2022-08-03T09:32:20;25.60;99.90
36214;DHT22;37652;50.400;30.628;2022-08-03T09:34:22;25.50;99.90
36214;DHT22;37652;50.400;30.628;2022-08-03T09:39:00;25.10;99.90
36214;DHT22;37652;50.400;30.628;2022-08-03T09:41:01;25.10;99.90
36214;DHT22;37652;50.400;30.628;2022-08-03T09:43:01;25.00;99.90
36214;DHT22;37652;50.400;30.628;2022-08-03T09:45:02;25.10;99.90
36214;DHT22;37652;50.400;30.628;2022-08-03T09:49:10;25.10;99.90
36214;DHT22;37652;50.400;30.628;2022-08-03T09:53:14;25.20;99.90
36214;DHT22;37652;50.400;30.628;2022-08-03T09:55:15;25.20;99.90
36214;DHT22;37652;50.400;30.628;2022-08-03T09:57:23;25.20;99.90
36214;DHT22;37652;50.400;30.628;2022-08-03T09:59:25;25.50;99.90
36214;DHT22;37652;50.400;30.628;2022-08-03T10:01:31;25.50;99.90
36214;DHT22;37652;50.400;30.628;2022-08-03T10:03:33;25.50;99.90
36214;DHT22;37652;50.400;30.628;2022-08-03T10:05:34;25.70;99.90
36214;DHT22;37652;50.400;30.628;2022-08-03T10:07:41;25.70;99.90
36214;DHT22;37652;50.400;30.628;2022-08-03T10:09:52;26.50;99.90
36214;DHT22;37652;50.400;30.628;2022-08-03T10:11:53;26.70;99.90
36214;DHT22;37652;50.400;30.628;2022-08-03T10:13:54;26.70;99.90
36214;DHT22;37652;50.400;30.628;2022-08-03T10:15:55;26.20;99.90
36214;DHT22;37652;50.400;30.628;2022-08-03T10:17:55;26.00;99.90
36214;DHT22;37652;50.400;30.628;2022-08-03T10:19:56;26.10;99.90
36214;DHT22;37652;50.400;30.628;2022-08-03T10:22:09;28.50;99.90
36214;DHT22;37652;50.400;30.628;2022-08-03T10:24:11;28.60;99.90
36214;DHT22;37652;50.400;30.628;2022-08-03T10:26:15;30.50;99.90
36214;DHT22;37652;50.400;30.628;2022-08-03T10:28:17;31.70;99.90
36214;DHT22;37652;50.400;30.628;2022-08-03T10:30:19;31.90;99.90
36214;DHT22;37652;50.400;30.628;2022-08-03T10:32:24;31.20;99.90
36214;DHT22;37652;50.400;30.628;2022-08-03T10:34:28;30.70;99.90
36214;DHT22;37652;50.400;30.628;2022-08-03T10:36:32;30.90;99.90
36214;DHT22;37652;50.400;30.628;2022-08-03T10:38:36;30.30;99.90
36214;DHT22;37652;50.400;30.628;2022-08-03T10:40:39;28.90;99.90
36214;DHT22;37652;50.400;30.628;2022-08-03T10:42:41;28.00;99.90
36214;DHT22;37652;50.400;30.628;2022-08-03T10:44:43;27.50;99.90
36214;DHT22;37652;50.400;30.628;2022-08-03T10:46:43;27.20;99.90
36214;DHT22;37652;50.400;30.628;2022-08-03T10:48:44;27.00;99.90
36214;DHT22;37652;50.400;30.628;2022-08-03T10:50:46;27.20;99.90
36214;DHT22;37652;50.400;30.628;2022-08-03T10:52:56;28.40;99.90
36214;DHT22;37652;50.400;30.628;2022-08-03T10:54:57;28.60;99.90
36214;DHT22;37652;50.400;30.628;2022-08-03T10:57:40;28.40;99.90
36214;DHT22;37652;50.400;30.628;2022-08-03T11:05:51;27.60;99.90
36214;DHT22;37652;50.400;30.628;2022-08-03T11:10:28;27.50;99.90
36214;DHT22;37652;50.400;30.628;2022-08-03T11:12:30;27.00;99.90
36214;DHT22;37652;50.400;30.628;2022-08-03T11:14:31;26.90;99.90
36214;DHT22;37652;50.400;30.628;2022-08-03T11:16:45;26.50;99.90
36214;DHT22;37652;50.400;30.628;2022-08-03T11:18:59;26.50;99.90
36214;DHT22;37652;50.400;30.628;2022-08-03T11:21:00;26.40;99.90
36214;DHT22;37652;50.400;30.628;2022-08-03T11:23:01;26.50;99.90
36214;DHT22;37652;50.400;30.628;2022-08-03T11:25:02;27.20;99.90
36214;DHT22;37652;50.400;30.628;2022-08-03T11:27:19;27.60;99.90
36214;DHT22;37652;50.400;30.628;2022-08-03T11:29:26;27.70;99.90
36214;DHT22;37652;50.400;30.628;2022-08-03T11:33:29;28.30;99.90
36214;DHT22;37652;50.400;30.628;2022-08-03T11:35:31;28.00;99.90
36214;DHT22;37652;50.400;30.628;2022-08-03T11:37:33;27.00;99.90
36214;DHT22;37652;50.400;30.628;2022-08-03T11:39:40;26.80;99.90
36214;DHT22;37652;50.400;30.628;2022-08-03T11:41:42;26.80;99.90
36214;DHT22;37652;50.400;30.628;2022-08-03T11:43:43;26.50;99.90
36214;DHT22;37652;50.400;30.628;2022-08-03T11:45:55;26.40;99.90
36214;DHT22;37652;50.400;30.628;2022-08-03T11:47:56;26.60;99.90
36214;DHT22;37652;50.400;30.628;2022-08-03T11:49:58;27.10;99.90
36214;DHT22;37652;50.400;30.628;2022-08-03T11:52:01;27.30;99.90
36214;DHT22;37652;50.400;30.628;2022-08-03T11:54:02;27.20;99.90
36214;DHT22;37652;50.400;30.628;2022-08-03T11:56:03;27.00;99.90
36214;DHT22;37652;50.400;30.628;2022-08-03T11:58:04;26.80;99.90
36214;DHT22;37652;50.400;30.628;2022-08-03T12:02:20;26.60;99.90
36214;DHT22;37652;50.400;30.628;2022-08-03T12:04:21;27.30;99.90
36214;DHT22;37652;50.400;30.628;2022-08-03T12:06:21;27.30;99.90
36214;DHT22;37652;50.400;30.628;2022-08-03T12:10:26;26.60;99.90
36214;DHT22;37652;50.400;30.628;2022-08-03T12:12:27;26.00;99.90
36214;DHT22;37652;50.400;30.628;2022-08-03T12:14:27;26.00;99.90
36214;DHT22;37652;50.400;30.628;2022-08-03T12:16:29;26.00;99.90
36214;DHT22;37652;50.400;30.628;2022-08-03T12:18:29;26.00;99.90
36214;DHT22;37652;50.400;30.628;2022-08-03T12:20:30;27.00;99.90
36214;DHT22;37652;50.400;30.628;2022-08-03T12:24:39;27.30;99.90
36214;DHT22;37652;50.400;30.628;2022-08-03T12:28:47;27.50;99.90
36214;DHT22;37652;50.400;30.628;2022-08-03T12:30:49;27.40;99.90
36214;DHT22;37652;50.400;30.628;2022-08-03T12:32:50;26.90;99.90
36214;DHT22;37652;50.400;30.628;2022-08-03T12:34:51;26.50;99.90
36214;DHT22;37652;50.400;30.628;2022-08-03T12:36:54;26.50;99.90
36214;DHT22;37652;50.400;30.628;2022-08-03T12:39:02;26.60;99.90
36214;DHT22;37652;50.400;30.628;2022-08-03T12:41:04;26.60;99.90
36214;DHT22;37652;50.400;30.628;2022-08-03T12:43:09;26.70;99.90
36214;DHT22;37652;50.400;30.628;2022-08-03T12:45:26;26.60;99.90
36214;DHT22;37652;50.400;30.628;2022-08-03T12:47:26;26.50;99.90
36214;DHT22;37652;50.400;30.628;2022-08-03T12:49:27;26.50;99.90
36214;DHT22;37652;50.400;30.628;2022-08-03T12:51:29;26.60;99.90
36214;DHT22;37652;50.400;30.628;2022-08-03T12:53:30;26.20;99.90
36214;DHT22;37652;50.400;30.628;2022-08-03T12:55:31;26.40;99.90
36214;DHT22;37652;50.400;30.628;2022-08-03T12:57:39;26.10;99.90
36214;DHT22;37652;50.400;30.628;2022-08-03T12:59:41;26.10;99.90
36214;DHT22;37652;50.400;30.628;2022-08-03T13:01:42;25.90;99.90
36214;DHT22;37652;50.400;30.628;2022-08-03T13:03:43;26.00;99.90
36214;DHT22;37652;50.400;30.628;2022-08-03T13:05:44;26.00;99.90
36214;DHT22;37652;50.400;30.628;2022-08-03T13:07:45;25.90;99.90
36214;DHT22;37652;50.400;30.628;2022-08-03T13:09:53;25.80;99.90
36214;DHT22;37652;50.400;30.628;2022-08-03T13:12:04;25.50;99.90
36214;DHT22;37652;50.400;30.628;2022-08-03T13:14:06;25.40;99.90
36214;DHT22;37652;50.400;30.628;2022-08-03T13:16:06;25.40;99.90
36214;DHT22;37652;50.400;30.628;2022-08-03T13:18:07;25.10;99.90
36214;DHT22;37652;50.400;30.628;2022-08-03T13:20:07;25.10;99.90
36214;DHT22;37652;50.400;30.628;2022-08-03T13:22:12;24.80;99.90
36214;DHT22;37652;50.400;30.628;2022-08-03T13:24:13;24.90;99.90
36214;DHT22;37652;50.400;30.628;2022-08-03T13:26:13;24.90;99.90
36214;DHT22;37652;50.400;30.628;2022-08-03T13:28:14;25.10;99.90
36214;DHT22;37652;50.400;30.628;2022-08-03T13:30:14;25.50;99.90
36214;DHT22;37652;50.400;30.628;2022-08-03T13:32:15;25.60;99.90
36214;DHT22;37652;50.400;30.628;2022-08-03T13:34:16;25.50;99.90
36214;DHT22;37652;50.400;30.628;2022-08-03T13:36:16;25.50;99.90
36214;DHT22;37652;50.400;30.628;2022-08-03T13:38:17;25.10;99.90
36214;DHT22;37652;50.400;30.628;2022-08-03T13:40:17;24.90;99.90